Theologos P . — SZNB — position and weather

sailwx.info

Track history (hours):
 
Tides and Currents Weather Stations Pressure Air Temp Water Temp Dewpoint Dewpoint Depression Visibility Wind Speed Wind Dir Waves Ship Positions

Theologos P .

Last reported at 2018-Jul-19 06:29 UTC. Time now 2018-Jul-19 07:55 UTC.
Position N 37°45' E 024°51'.

Length 118 m; draft 4.8 m.

Type: Passenger vessel. MMSI: 240521000.

Date/timePositionNaut miles runAvg speedWind from/ knotsBaromVisibWave heightAir tempDewpointWater temp
2018-Jul-19 06:29N 37°45' E 024°51'919.0
2018-Jul-19 05:59N 37°38' E 024°59'918.9
2018-Jul-19 05:30N 37°32' E 025°08'3 6.7
2018-Jul-19 05:00N 37°30' E 025°11'714.5
2018-Jul-19 04:30N 37°28' E 025°20'0 0.0
2018-Jul-19 04:00N 37°28' E 025°20'0 0.0
2018-Jul-19 03:30N 37°28' E 025°20'0 0.0
2018-Jul-19 03:00N 37°28' E 025°20'0 0.0
2018-Jul-19 02:30N 37°28' E 025°20'0 0.0
2018-Jul-19 02:00N 37°28' E 025°20'0 0.0
2018-Jul-19 01:30N 37°28' E 025°20'0 0.0
2018-Jul-19 01:00N 37°28' E 025°20'0 0.0
2018-Jul-19 00:30N 37°28' E 025°20'0 0.0
2018-Jul-19 00:00N 37°28' E 025°20'0 0.0
2018-Jul-18 23:30N 37°28' E 025°20'0 0.0
2018-Jul-18 23:00N 37°28' E 025°20'0 0.0
2018-Jul-18 22:30N 37°28' E 025°20'0 0.0
2018-Jul-18 22:00N 37°28' E 025°20'0 0.0
2018-Jul-18 21:30N 37°28' E 025°20'0 0.0
2018-Jul-18 21:00N 37°28' E 025°20'0 0.0
2018-Jul-18 20:30N 37°28' E 025°20'0 0.0
2018-Jul-18 20:00N 37°28' E 025°20'0 0.2
2018-Jul-18 19:31N 37°28' E 025°20'917.4
2018-Jul-18 19:00N 37°32' E 025°10'3 5.3
2018-Jul-18 18:30N 37°33' E 025°07'1019.2
2018-Jul-18 18:00N 37°39' E 024°58'4415.0
2018-Jul-18 15:04N 37°60' E 024°08'118.7
2018-Jul-18 15:00N 37°60' E 024°07'4 0.7
2018-Jul-18 09:27N 38°01' E 024°02'918.9
2018-Jul-18 08:58N 37°58' E 024°13'4314.1
2018-Jul-18 05:55N 37°37' E 025°00'818.2
2018-Jul-18 05:30N 37°32' E 025°08'4 7.5
2018-Jul-18 05:00N 37°30' E 025°11'713.9
2018-Jul-18 04:30N 37°28' E 025°20'0 0.0
2018-Jul-18 04:00N 37°28' E 025°20'0 0.0
2018-Jul-18 03:28N 37°28' E 025°20'0 0.0
2018-Jul-18 03:00N 37°28' E 025°20'0 0.0
2018-Jul-18 02:30N 37°28' E 025°20'0 0.0
2018-Jul-18 02:00N 37°28' E 025°20'0 0.0
2018-Jul-18 01:29N 37°28' E 025°20'0 0.0
2018-Jul-18 01:00N 37°28' E 025°20'0 0.0
2018-Jul-18 00:30N 37°28' E 025°20'0 0.0
2018-Jul-18 00:00N 37°28' E 025°20'0 0.0
2018-Jul-17 23:29N 37°28' E 025°20'0 0.0
2018-Jul-17 23:00N 37°28' E 025°20'0 0.0
2018-Jul-17 22:30N 37°28' E 025°20'0 0.0
2018-Jul-17 22:00N 37°28' E 025°20'0 0.0
2018-Jul-17 21:30N 37°28' E 025°20'0 0.0
2018-Jul-17 21:00N 37°28' E 025°20'0 0.0
2018-Jul-17 20:30N 37°28' E 025°20'0 0.0
2018-Jul-17 20:00N 37°28' E 025°20'3 5.1
2018-Jul-17 19:30N 37°29' E 025°17'713.5
2018-Jul-17 19:00N 37°32' E 025°09'4 8.6
2018-Jul-17 18:30N 37°34' E 025°05'1019.0
2018-Jul-17 18:00N 37°41' E 024°56'4414.6
2018-Jul-17 14:58N 38°00' E 024°05'4 0.7
2018-Jul-17 09:16N 38°01' E 024°01'415.3
2018-Jul-17 09:01N 38°00' E 024°06'1019.2
2018-Jul-17 08:29N 37°57' E 024°18'2914.3
2018-Jul-17 06:29N 37°45' E 024°51'1019.6
2018-Jul-17 05:57N 37°38' E 024°60'818.7
2018-Jul-17 05:30N 37°32' E 025°08'3 6.6
2018-Jul-17 05:00N 37°30' E 025°11'714.2
2018-Jul-17 04:30N 37°28' E 025°20'0 0.0
2018-Jul-17 04:00N 37°28' E 025°20'0 0.0
2018-Jul-17 03:30N 37°28' E 025°20'0 0.0
2018-Jul-17 03:00N 37°28' E 025°20'0 0.0
2018-Jul-17 02:30N 37°28' E 025°20'0 0.0
2018-Jul-17 02:00N 37°28' E 025°20'0 0.0
2018-Jul-17 01:30N 37°28' E 025°20'0 0.0
2018-Jul-17 01:00N 37°28' E 025°20'0 0.0
2018-Jul-17 00:30N 37°28' E 025°20'0 0.0
2018-Jul-16 23:30N 37°28' E 025°20'0 0.0
2018-Jul-16 23:00N 37°28' E 025°20'0 0.0
2018-Jul-16 22:29N 37°28' E 025°20'0 0.0
2018-Jul-16 21:59N 37°28' E 025°20'0 0.0
2018-Jul-16 21:30N 37°28' E 025°20'0 0.0
2018-Jul-16 21:00N 37°28' E 025°20'0 0.0
2018-Jul-16 20:31N 37°28' E 025°20'0 0.0
2018-Jul-16 20:00N 37°28' E 025°20'0 0.6
2018-Jul-16 19:31N 37°28' E 025°19'918.0
2018-Jul-16 19:00N 37°32' E 025°09'2 4.6
2018-Jul-16 18:30N 37°33' E 025°07'5515.6
2018-Jul-16 15:00N 37°60' E 024°06'5 0.8
2018-Jul-16 09:24N 38°01' E 024°01'818.0
2018-Jul-16 08:56N 37°59' E 024°11'3514.1
2018-Jul-16 06:26N 37°44' E 024°52'1019.4
2018-Jul-16 05:54N 37°37' E 025°01'718.3
2018-Jul-16 05:31N 37°32' E 025°08'4 7.1
2018-Jul-16 05:00N 37°30' E 025°11'713.4
2018-Jul-16 04:29N 37°28' E 025°20'0 0.0
2018-Jul-16 04:00N 37°28' E 025°20'0 0.0
2018-Jul-16 03:30N 37°28' E 025°20'0 0.0
2018-Jul-16 03:00N 37°28' E 025°20'0 0.0
2018-Jul-16 02:30N 37°28' E 025°20'0 0.0
2018-Jul-16 02:00N 37°28' E 025°20'0 0.0
2018-Jul-16 01:30N 37°28' E 025°20'0 0.0
2018-Jul-16 01:00N 37°28' E 025°20'0 0.0
2018-Jul-16 00:30N 37°28' E 025°20'0 0.0
2018-Jul-16 00:00N 37°28' E 025°20'2 4.8
2018-Jul-15 23:30N 37°29' E 025°17'713.9
2018-Jul-15 23:00N 37°32' E 025°09'1317.5
2018-Jul-15 22:17N 37°38' E 024°55'4719.5
2018-Jul-15 19:53N 38°00' E 024°03'2 2.7
2018-Jul-15 19:03N 38°01' E 024°01'0 4.8
2018-Jul-15 19:01N 38°01' E 024°01'915.8
2018-Jul-15 18:26N 37°58' E 024°12'4 1.2
2018-Jul-15 14:52N 37°60' E 024°07'5 5.2
2018-Jul-15 13:54N 38°01' E 024°01'916.7
2018-Jul-15 13:23N 37°58' E 024°11'3413.6
2018-Jul-15 10:51N 37°45' E 024°51'1219.2
2018-Jul-15 10:12N 37°36' E 025°02'418.5
2018-Jul-15 10:00N 37°34' E 025°06'4 7.9
2018-Jul-15 09:30N 37°31' E 025°10'917.5
2018-Jul-15 09:01N 37°28' E 025°20'0 0.1
2018-Jul-15 08:30N 37°28' E 025°20'0 0.0
2018-Jul-15 08:00N 37°28' E 025°20'0 0.0
2018-Jul-15 07:31N 37°28' E 025°20'0 0.0
2018-Jul-15 07:01N 37°28' E 025°20'0 0.0
2018-Jul-15 06:30N 37°28' E 025°20'0 0.0
2018-Jul-15 06:01N 37°28' E 025°20'0 0.0
2018-Jul-15 05:30N 37°28' E 025°20'0 0.0
2018-Jul-15 05:00N 37°28' E 025°20'0 0.0
2018-Jul-15 04:30N 37°28' E 025°20'0 0.0
2018-Jul-15 04:00N 37°28' E 025°20'0 0.0
2018-Jul-15 03:30N 37°28' E 025°20'0 0.0
2018-Jul-15 03:01N 37°28' E 025°20'0 0.0
2018-Jul-15 02:30N 37°28' E 025°20'0 0.0
2018-Jul-15 02:01N 37°28' E 025°20'0 0.0
2018-Jul-15 01:30N 37°28' E 025°20'0 0.0
2018-Jul-15 01:00N 37°28' E 025°20'0 0.0
2018-Jul-15 00:31N 37°28' E 025°20'0 0.0
2018-Jul-15 00:01N 37°28' E 025°20'0 0.0
2018-Jul-14 23:31N 37°28' E 025°20'0 0.0
2018-Jul-14 23:00N 37°28' E 025°20'0 0.0
2018-Jul-14 22:30N 37°28' E 025°20'0 0.0
2018-Jul-14 22:00N 37°28' E 025°20'0 0.0
2018-Jul-14 21:30N 37°28' E 025°20'0 0.0
2018-Jul-14 21:00N 37°28' E 025°20'0 0.0
2018-Jul-14 20:31N 37°28' E 025°20'0 0.0
2018-Jul-14 20:01N 37°28' E 025°20'4 8.2
2018-Jul-14 19:30N 37°29' E 025°15'510.4
2018-Jul-14 19:00N 37°32' E 025°09'1717.4
2018-Jul-14 18:03N 37°43' E 024°53'119.0
2018-Jul-14 17:59N 37°44' E 024°52'3915.0
2018-Jul-14 15:22N 37°60' E 024°07'5 3.0
2018-Jul-14 13:47N 38°01' E 024°01'518.0
2018-Jul-14 13:30N 37°59' E 024°07'3815.5
2018-Jul-14 11:03N 37°45' E 024°51'119.5
2018-Jul-14 10:59N 37°44' E 024°52'1118.9
2018-Jul-14 10:26N 37°36' E 025°02'717.6
2018-Jul-14 10:00N 37°32' E 025°09'4 7.8
2018-Jul-14 09:30N 37°30' E 025°13'511.2
2018-Jul-14 09:00N 37°28' E 025°20'4 7.5
2018-Jul-14 08:30N 37°29' E 025°15'611.2
2018-Jul-14 08:00N 37°32' E 025°09'714.1
2018-Jul-14 07:31N 37°36' E 025°02'1119.3
2018-Jul-14 06:55N 37°44' E 024°52'3915.5
2018-Jul-14 04:24N 37°60' E 024°07'5 1.1
2018-Jul-14 00:01N 38°01' E 024°01'0 4.7
2018-Jul-14 00:00N 38°01' E 024°01'917.3
2018-Jul-13 23:29N 37°58' E 024°11'3318.8
2018-Jul-13 21:42N 37°41' E 024°48'419.1
2018-Jul-13 21:30N 37°39' E 024°52'1018.9
2018-Jul-13 20:59N 37°34' E 025°03'918.9
2018-Jul-13 20:30N 37°29' E 025°13'611.4
2018-Jul-13 20:00N 37°28' E 025°20'0 0.2
2018-Jul-13 19:30N 37°28' E 025°20'815.5
2018-Jul-13 19:00N 37°31' E 025°11'2 4.4
2018-Jul-13 18:30N 37°32' E 025°09'1019.3
2018-Jul-13 18:00N 37°38' E 024°59'4615.0
2018-Jul-13 14:54N 37°60' E 024°07'5 0.9
2018-Jul-13 09:17N 38°01' E 024°01'516.4
2018-Jul-13 09:00N 37°60' E 024°06'3815.4
2018-Jul-13 06:32N 37°45' E 024°51'119.2
2018-Jul-13 06:27N 37°44' E 024°52'919.1
2018-Jul-13 06:00N 37°38' E 024°60'918.0
2018-Jul-13 05:30N 37°32' E 025°09'3 5.2
2018-Jul-13 05:00N 37°30' E 025°11'714.1
2018-Jul-13 04:30N 37°28' E 025°20'0 0.0
2018-Jul-13 04:00N 37°28' E 025°20'0 0.0
2018-Jul-13 03:30N 37°28' E 025°20'0 0.0
2018-Jul-13 03:00N 37°28' E 025°20'0 0.0
2018-Jul-13 02:30N 37°28' E 025°20'0 0.0
2018-Jul-13 02:00N 37°28' E 025°20'0 0.0
2018-Jul-13 01:30N 37°28' E 025°20'0 0.0
2018-Jul-13 01:00N 37°28' E 025°20'0 0.0
2018-Jul-13 00:30N 37°28' E 025°20'0 0.0
2018-Jul-13 00:00N 37°28' E 025°20'0 0.0
2018-Jul-12 23:30N 37°28' E 025°20'0 0.0
2018-Jul-12 23:00N 37°28' E 025°20'0 0.0
2018-Jul-12 22:30N 37°28' E 025°20'0 0.0
2018-Jul-12 22:00N 37°28' E 025°20'0 0.0
2018-Jul-12 21:30N 37°28' E 025°20'0 0.0
2018-Jul-12 21:00N 37°28' E 025°20'0 0.0
2018-Jul-12 20:30N 37°28' E 025°20'0 0.0
2018-Jul-12 20:00N 37°28' E 025°20'2 3.2
2018-Jul-12 19:30N 37°28' E 025°18'815.4
2018-Jul-12 19:00N 37°32' E 025°09'3 6.5
2018-Jul-12 18:30N 37°33' E 025°06'5315.2
2018-Jul-12 14:59N 37°60' E 024°07'5 0.9
2018-Jul-12 09:20N 38°01' E 024°01'617.8
2018-Jul-12 09:00N 37°60' E 024°08'3715.0
2018-Jul-12 06:31N 37°45' E 024°51'219.6
2018-Jul-12 06:27N 37°44' E 024°52'1119.0
2018-Jul-12 05:53N 37°36' E 025°02'718.0
2018-Jul-12 05:30N 37°32' E 025°09'3 5.7
2018-Jul-12 05:00N 37°30' E 025°11'714.0
2018-Jul-12 04:31N 37°28' E 025°20'0 0.0
2018-Jul-12 04:00N 37°28' E 025°20'0 0.0
2018-Jul-12 03:31N 37°28' E 025°20'0 0.0
2018-Jul-12 03:00N 37°28' E 025°20'0 0.0
2018-Jul-12 02:31N 37°28' E 025°20'0 0.0
2018-Jul-12 02:00N 37°28' E 025°20'0 0.0
2018-Jul-12 01:30N 37°28' E 025°20'0 0.0
2018-Jul-12 01:01N 37°28' E 025°20'0 0.0
2018-Jul-12 00:31N 37°28' E 025°20'0 0.0
2018-Jul-12 00:00N 37°28' E 025°20'0 0.0
2018-Jul-11 23:30N 37°28' E 025°20'0 0.0
2018-Jul-11 23:01N 37°28' E 025°20'0 0.0
2018-Jul-11 22:31N 37°28' E 025°20'0 0.0
2018-Jul-11 22:00N 37°28' E 025°20'0 0.0
2018-Jul-11 21:31N 37°28' E 025°20'0 0.0
2018-Jul-11 21:00N 37°28' E 025°20'0 0.0
2018-Jul-11 20:31N 37°28' E 025°20'0 0.0
2018-Jul-11 20:00N 37°28' E 025°20'3 5.6
2018-Jul-11 19:30N 37°29' E 025°16'612.9
2018-Jul-11 19:00N 37°32' E 025°09'510.4
2018-Jul-11 18:30N 37°35' E 025°04'5214.9
2018-Jul-11 15:01N 37°60' E 024°06'218.2
2018-Jul-11 14:53N 38°00' E 024°03'2 0.4
2018-Jul-11 09:20N 38°01' E 024°01'617.2
2018-Jul-11 09:00N 37°60' E 024°08'3715.0
2018-Jul-11 06:32N 37°45' E 024°51'220.0
2018-Jul-11 06:27N 37°44' E 024°52'919.3
2018-Jul-11 06:00N 37°38' E 024°60'918.1
2018-Jul-11 05:30N 37°32' E 025°09'3 6.8
2018-Jul-11 05:00N 37°30' E 025°12'612.6
2018-Jul-11 04:30N 37°28' E 025°20'0 0.0
2018-Jul-11 04:00N 37°28' E 025°20'0 0.0
2018-Jul-11 03:30N 37°28' E 025°20'0 0.0
2018-Jul-11 03:00N 37°28' E 025°20'0 0.0
2018-Jul-11 02:30N 37°28' E 025°20'0 0.0
2018-Jul-11 01:59N 37°28' E 025°20'0 0.0
2018-Jul-11 01:30N 37°28' E 025°20'0 0.0
2018-Jul-11 01:00N 37°28' E 025°20'0 0.0
2018-Jul-11 00:30N 37°28' E 025°20'0 0.0
2018-Jul-11 00:00N 37°28' E 025°20'0 0.0
2018-Jul-10 23:30N 37°28' E 025°20'0 0.0
2018-Jul-10 23:00N 37°28' E 025°20'0 0.0
2018-Jul-10 22:30N 37°28' E 025°20'0 0.0
2018-Jul-10 22:00N 37°28' E 025°20'0 0.0
2018-Jul-10 21:30N 37°28' E 025°20'0 0.0
2018-Jul-10 20:59N 37°28' E 025°20'0 0.0
2018-Jul-10 20:30N 37°28' E 025°20'0 0.0
2018-Jul-10 20:00N 37°28' E 025°20'0 0.6
2018-Jul-10 19:30N 37°28' E 025°19'918.1
2018-Jul-10 19:00N 37°32' E 025°09'3 6.9
2018-Jul-10 18:30N 37°34' E 025°05'5315.3
2018-Jul-10 15:03N 37°60' E 024°07'118.8
2018-Jul-10 15:00N 38°00' E 024°06'4 0.8
2018-Jul-10 09:12N 38°01' E 024°01'316.9
2018-Jul-10 09:00N 38°01' E 024°05'4115.8
2018-Jul-10 06:24N 37°44' E 024°52'919.2
2018-Jul-10 05:56N 37°37' E 025°00'818.5
2018-Jul-10 05:30N 37°32' E 025°08'4 7.0
2018-Jul-10 05:00N 37°30' E 025°11'713.8
2018-Jul-10 04:30N 37°28' E 025°20'0 0.0
2018-Jul-10 04:00N 37°28' E 025°20'0 0.0
2018-Jul-10 03:30N 37°28' E 025°20'0 0.0
2018-Jul-10 03:00N 37°28' E 025°20'0 0.0
2018-Jul-10 02:30N 37°28' E 025°20'0 0.0
2018-Jul-10 02:00N 37°28' E 025°20'0 0.0
2018-Jul-10 01:30N 37°28' E 025°20'0 0.0
2018-Jul-10 01:00N 37°28' E 025°20'0 0.0
2018-Jul-10 00:30N 37°28' E 025°20'0 0.0
2018-Jul-10 00:00N 37°28' E 025°20'0 0.0
2018-Jul-09 23:30N 37°28' E 025°20'0 0.0
2018-Jul-09 23:00N 37°28' E 025°20'0 0.0
2018-Jul-09 22:30N 37°28' E 025°20'0 0.0
2018-Jul-09 22:00N 37°28' E 025°20'0 0.0
2018-Jul-09 21:30N 37°28' E 025°20'0 0.0
2018-Jul-09 21:00N 37°28' E 025°20'0 0.0
2018-Jul-09 20:30N 37°28' E 025°20'0 0.0
2018-Jul-09 20:00N 37°28' E 025°20'2 4.1
2018-Jul-09 19:31N 37°29' E 025°17'714.5
2018-Jul-09 19:00N 37°32' E 025°09'5 9.5
2018-Jul-09 18:30N 37°35' E 025°04'5215.1
2018-Jul-09 15:04N 37°60' E 024°07'118.5
2018-Jul-09 15:00N 38°00' E 024°06'4 0.7
2018-Jul-09 09:35N 38°01' E 024°01'112.2
2018-Jul-09 09:30N 38°01' E 024°02'1218.6
2018-Jul-09 08:51N 37°57' E 024°16'3113.3
2018-Jul-09 06:30N 37°44' E 024°52'  
Track history (hours):
 
Tides and Currents Weather Stations Pressure Air Temp Water Temp Dewpoint Dewpoint Depression Visibility Wind Speed Wind Dir Waves Ship Positions

Theologos P .

Last reported at 2018-Jul-19 06:29 UTC. Time now 2018-Jul-19 07:55 UTC.
Position N 37°45' E 024°51'.

Length 118 m; draft 4.8 m.

Type: Passenger vessel. MMSI: 240521000.

Date/timePositionNaut miles runAvg speedWind from/ knotsBaromVisibWave heightAir tempDewpointWater temp
2018-Jul-19 06:29N 37°45' E 024°51'919.0
2018-Jul-19 05:59N 37°38' E 024°59'918.9
2018-Jul-19 05:30N 37°32' E 025°08'3 6.7
2018-Jul-19 05:00N 37°30' E 025°11'714.5
2018-Jul-19 04:30N 37°28' E 025°20'0 0.0
2018-Jul-19 04:00N 37°28' E 025°20'0 0.0
2018-Jul-19 03:30N 37°28' E 025°20'0 0.0
2018-Jul-19 03:00N 37°28' E 025°20'0 0.0
2018-Jul-19 02:30N 37°28' E 025°20'0 0.0
2018-Jul-19 02:00N 37°28' E 025°20'0 0.0
2018-Jul-19 01:30N 37°28' E 025°20'0 0.0
2018-Jul-19 01:00N 37°28' E 025°20'0 0.0
2018-Jul-19 00:30N 37°28' E 025°20'0 0.0
2018-Jul-19 00:00N 37°28' E 025°20'0 0.0
2018-Jul-18 23:30N 37°28' E 025°20'0 0.0
2018-Jul-18 23:00N 37°28' E 025°20'0 0.0
2018-Jul-18 22:30N 37°28' E 025°20'0 0.0
2018-Jul-18 22:00N 37°28' E 025°20'0 0.0
2018-Jul-18 21:30N 37°28' E 025°20'0 0.0
2018-Jul-18 21:00N 37°28' E 025°20'0 0.0
2018-Jul-18 20:30N 37°28' E 025°20'0 0.0
2018-Jul-18 20:00N 37°28' E 025°20'0 0.2
2018-Jul-18 19:31N 37°28' E 025°20'917.4
2018-Jul-18 19:00N 37°32' E 025°10'3 5.3
2018-Jul-18 18:30N 37°33' E 025°07'1019.2
2018-Jul-18 18:00N 37°39' E 024°58'4415.0
2018-Jul-18 15:04N 37°60' E 024°08'118.7
2018-Jul-18 15:00N 37°60' E 024°07'4 0.7
2018-Jul-18 09:27N 38°01' E 024°02'918.9
2018-Jul-18 08:58N 37°58' E 024°13'4314.1
2018-Jul-18 05:55N 37°37' E 025°00'818.2
2018-Jul-18 05:30N 37°32' E 025°08'4 7.5
2018-Jul-18 05:00N 37°30' E 025°11'713.9
2018-Jul-18 04:30N 37°28' E 025°20'0 0.0
2018-Jul-18 04:00N 37°28' E 025°20'0 0.0
2018-Jul-18 03:28N 37°28' E 025°20'0 0.0
2018-Jul-18 03:00N 37°28' E 025°20'0 0.0
2018-Jul-18 02:30N 37°28' E 025°20'0 0.0
2018-Jul-18 02:00N 37°28' E 025°20'0 0.0
2018-Jul-18 01:29N 37°28' E 025°20'0 0.0
2018-Jul-18 01:00N 37°28' E 025°20'0 0.0
2018-Jul-18 00:30N 37°28' E 025°20'0 0.0
2018-Jul-18 00:00N 37°28' E 025°20'0 0.0
2018-Jul-17 23:29N 37°28' E 025°20'0 0.0
2018-Jul-17 23:00N 37°28' E 025°20'0 0.0
2018-Jul-17 22:30N 37°28' E 025°20'0 0.0
2018-Jul-17 22:00N 37°28' E 025°20'0 0.0
2018-Jul-17 21:30N 37°28' E 025°20'0 0.0
2018-Jul-17 21:00N 37°28' E 025°20'0 0.0
2018-Jul-17 20:30N 37°28' E 025°20'0 0.0
2018-Jul-17 20:00N 37°28' E 025°20'3 5.1
2018-Jul-17 19:30N 37°29' E 025°17'713.5
2018-Jul-17 19:00N 37°32' E 025°09'4 8.6
2018-Jul-17 18:30N 37°34' E 025°05'1019.0
2018-Jul-17 18:00N 37°41' E 024°56'4414.6
2018-Jul-17 14:58N 38°00' E 024°05'4 0.7
2018-Jul-17 09:16N 38°01' E 024°01'415.3
2018-Jul-17 09:01N 38°00' E 024°06'1019.2
2018-Jul-17 08:29N 37°57' E 024°18'2914.3
2018-Jul-17 06:29N 37°45' E 024°51'1019.6
2018-Jul-17 05:57N 37°38' E 024°60'818.7
2018-Jul-17 05:30N 37°32' E 025°08'3 6.6
2018-Jul-17 05:00N 37°30' E 025°11'714.2
2018-Jul-17 04:30N 37°28' E 025°20'0 0.0
2018-Jul-17 04:00N 37°28' E 025°20'0 0.0
2018-Jul-17 03:30N 37°28' E 025°20'0 0.0
2018-Jul-17 03:00N 37°28' E 025°20'0 0.0
2018-Jul-17 02:30N 37°28' E 025°20'0 0.0
2018-Jul-17 02:00N 37°28' E 025°20'0 0.0
2018-Jul-17 01:30N 37°28' E 025°20'0 0.0
2018-Jul-17 01:00N 37°28' E 025°20'0 0.0
2018-Jul-17 00:30N 37°28' E 025°20'0 0.0
2018-Jul-16 23:30N 37°28' E 025°20'0 0.0
2018-Jul-16 23:00N 37°28' E 025°20'0 0.0
2018-Jul-16 22:29N 37°28' E 025°20'0 0.0
2018-Jul-16 21:59N 37°28' E 025°20'0 0.0
2018-Jul-16 21:30N 37°28' E 025°20'0 0.0
2018-Jul-16 21:00N 37°28' E 025°20'0 0.0
2018-Jul-16 20:31N 37°28' E 025°20'0 0.0
2018-Jul-16 20:00N 37°28' E 025°20'0 0.6
2018-Jul-16 19:31N 37°28' E 025°19'918.0
2018-Jul-16 19:00N 37°32' E 025°09'2 4.6
2018-Jul-16 18:30N 37°33' E 025°07'5515.6
2018-Jul-16 15:00N 37°60' E 024°06'5 0.8
2018-Jul-16 09:24N 38°01' E 024°01'818.0
2018-Jul-16 08:56N 37°59' E 024°11'3514.1
2018-Jul-16 06:26N 37°44' E 024°52'1019.4
2018-Jul-16 05:54N 37°37' E 025°01'718.3
2018-Jul-16 05:31N 37°32' E 025°08'4 7.1
2018-Jul-16 05:00N 37°30' E 025°11'713.4
2018-Jul-16 04:29N 37°28' E 025°20'0 0.0
2018-Jul-16 04:00N 37°28' E 025°20'0 0.0
2018-Jul-16 03:30N 37°28' E 025°20'0 0.0
2018-Jul-16 03:00N 37°28' E 025°20'0 0.0
2018-Jul-16 02:30N 37°28' E 025°20'0 0.0
2018-Jul-16 02:00N 37°28' E 025°20'0 0.0
2018-Jul-16 01:30N 37°28' E 025°20'0 0.0
2018-Jul-16 01:00N 37°28' E 025°20'0 0.0
2018-Jul-16 00:30N 37°28' E 025°20'0 0.0
2018-Jul-16 00:00N 37°28' E 025°20'2 4.8
2018-Jul-15 23:30N 37°29' E 025°17'713.9
2018-Jul-15 23:00N 37°32' E 025°09'1317.5
2018-Jul-15 22:17N 37°38' E 024°55'4719.5
2018-Jul-15 19:53N 38°00' E 024°03'2 2.7
2018-Jul-15 19:03N 38°01' E 024°01'0 4.8
2018-Jul-15 19:01N 38°01' E 024°01'915.8
2018-Jul-15 18:26N 37°58' E 024°12'4 1.2
2018-Jul-15 14:52N 37°60' E 024°07'5 5.2
2018-Jul-15 13:54N 38°01' E 024°01'916.7
2018-Jul-15 13:23N 37°58' E 024°11'3413.6
2018-Jul-15 10:51N 37°45' E 024°51'1219.2
2018-Jul-15 10:12N 37°36' E 025°02'418.5
2018-Jul-15 10:00N 37°34' E 025°06'4 7.9
2018-Jul-15 09:30N 37°31' E 025°10'917.5
2018-Jul-15 09:01N 37°28' E 025°20'0 0.1
2018-Jul-15 08:30N 37°28' E 025°20'0 0.0
2018-Jul-15 08:00N 37°28' E 025°20'0 0.0
2018-Jul-15 07:31N 37°28' E 025°20'0 0.0
2018-Jul-15 07:01N 37°28' E 025°20'0 0.0
2018-Jul-15 06:30N 37°28' E 025°20'0 0.0
2018-Jul-15 06:01N 37°28' E 025°20'0 0.0
2018-Jul-15 05:30N 37°28' E 025°20'0 0.0
2018-Jul-15 05:00N 37°28' E 025°20'0 0.0
2018-Jul-15 04:30N 37°28' E 025°20'0 0.0
2018-Jul-15 04:00N 37°28' E 025°20'0 0.0
2018-Jul-15 03:30N 37°28' E 025°20'0 0.0
2018-Jul-15 03:01N 37°28' E 025°20'0 0.0
2018-Jul-15 02:30N 37°28' E 025°20'0 0.0
2018-Jul-15 02:01N 37°28' E 025°20'0 0.0
2018-Jul-15 01:30N 37°28' E 025°20'0 0.0
2018-Jul-15 01:00N 37°28' E 025°20'0 0.0
2018-Jul-15 00:31N 37°28' E 025°20'0 0.0
2018-Jul-15 00:01N 37°28' E 025°20'0 0.0
2018-Jul-14 23:31N 37°28' E 025°20'0 0.0
2018-Jul-14 23:00N 37°28' E 025°20'0 0.0
2018-Jul-14 22:30N 37°28' E 025°20'0 0.0
2018-Jul-14 22:00N 37°28' E 025°20'0 0.0
2018-Jul-14 21:30N 37°28' E 025°20'0 0.0
2018-Jul-14 21:00N 37°28' E 025°20'0 0.0
2018-Jul-14 20:31N 37°28' E 025°20'0 0.0
2018-Jul-14 20:01N 37°28' E 025°20'4 8.2
2018-Jul-14 19:30N 37°29' E 025°15'510.4
2018-Jul-14 19:00N 37°32' E 025°09'1717.4
2018-Jul-14 18:03N 37°43' E 024°53'119.0
2018-Jul-14 17:59N 37°44' E 024°52'3915.0
2018-Jul-14 15:22N 37°60' E 024°07'5 3.0
2018-Jul-14 13:47N 38°01' E 024°01'518.0
2018-Jul-14 13:30N 37°59' E 024°07'3815.5
2018-Jul-14 11:03N 37°45' E 024°51'119.5
2018-Jul-14 10:59N 37°44' E 024°52'1118.9
2018-Jul-14 10:26N 37°36' E 025°02'717.6
2018-Jul-14 10:00N 37°32' E 025°09'4 7.8
2018-Jul-14 09:30N 37°30' E 025°13'511.2
2018-Jul-14 09:00N 37°28' E 025°20'4 7.5
2018-Jul-14 08:30N 37°29' E 025°15'611.2
2018-Jul-14 08:00N 37°32' E 025°09'714.1
2018-Jul-14 07:31N 37°36' E 025°02'1119.3
2018-Jul-14 06:55N 37°44' E 024°52'3915.5
2018-Jul-14 04:24N 37°60' E 024°07'5 1.1
2018-Jul-14 00:01N 38°01' E 024°01'0 4.7
2018-Jul-14 00:00N 38°01' E 024°01'917.3
2018-Jul-13 23:29N 37°58' E 024°11'3318.8
2018-Jul-13 21:42N 37°41' E 024°48'419.1
2018-Jul-13 21:30N 37°39' E 024°52'1018.9
2018-Jul-13 20:59N 37°34' E 025°03'918.9
2018-Jul-13 20:30N 37°29' E 025°13'611.4
2018-Jul-13 20:00N 37°28' E 025°20'0 0.2
2018-Jul-13 19:30N 37°28' E 025°20'815.5
2018-Jul-13 19:00N 37°31' E 025°11'2 4.4
2018-Jul-13 18:30N 37°32' E 025°09'1019.3
2018-Jul-13 18:00N 37°38' E 024°59'4615.0
2018-Jul-13 14:54N 37°60' E 024°07'5 0.9
2018-Jul-13 09:17N 38°01' E 024°01'516.4
2018-Jul-13 09:00N 37°60' E 024°06'3815.4
2018-Jul-13 06:32N 37°45' E 024°51'119.2
2018-Jul-13 06:27N 37°44' E 024°52'919.1
2018-Jul-13 06:00N 37°38' E 024°60'918.0
2018-Jul-13 05:30N 37°32' E 025°09'3 5.2
2018-Jul-13 05:00N 37°30' E 025°11'714.1
2018-Jul-13 04:30N 37°28' E 025°20'0 0.0
2018-Jul-13 04:00N 37°28' E 025°20'0 0.0
2018-Jul-13 03:30N 37°28' E 025°20'0 0.0
2018-Jul-13 03:00N 37°28' E 025°20'0 0.0
2018-Jul-13 02:30N 37°28' E 025°20'0 0.0
2018-Jul-13 02:00N 37°28' E 025°20'0 0.0
2018-Jul-13 01:30N 37°28' E 025°20'0 0.0
2018-Jul-13 01:00N 37°28' E 025°20'0 0.0
2018-Jul-13 00:30N 37°28' E 025°20'0 0.0
2018-Jul-13 00:00N 37°28' E 025°20'0 0.0
2018-Jul-12 23:30N 37°28' E 025°20'0 0.0
2018-Jul-12 23:00N 37°28' E 025°20'0 0.0
2018-Jul-12 22:30N 37°28' E 025°20'0 0.0
2018-Jul-12 22:00N 37°28' E 025°20'0 0.0
2018-Jul-12 21:30N 37°28' E 025°20'0 0.0
2018-Jul-12 21:00N 37°28' E 025°20'0 0.0
2018-Jul-12 20:30N 37°28' E 025°20'0 0.0
2018-Jul-12 20:00N 37°28' E 025°20'2 3.2
2018-Jul-12 19:30N 37°28' E 025°18'815.4
2018-Jul-12 19:00N 37°32' E 025°09'3 6.5
2018-Jul-12 18:30N 37°33' E 025°06'5315.2
2018-Jul-12 14:59N 37°60' E 024°07'5 0.9
2018-Jul-12 09:20N 38°01' E 024°01'617.8
2018-Jul-12 09:00N 37°60' E 024°08'3715.0
2018-Jul-12 06:31N 37°45' E 024°51'219.6
2018-Jul-12 06:27N 37°44' E 024°52'1119.0
2018-Jul-12 05:53N 37°36' E 025°02'718.0
2018-Jul-12 05:30N 37°32' E 025°09'3 5.7
2018-Jul-12 05:00N 37°30' E 025°11'714.0
2018-Jul-12 04:31N 37°28' E 025°20'0 0.0
2018-Jul-12 04:00N 37°28' E 025°20'0 0.0
2018-Jul-12 03:31N 37°28' E 025°20'0 0.0
2018-Jul-12 03:00N 37°28' E 025°20'0 0.0
2018-Jul-12 02:31N 37°28' E 025°20'0 0.0
2018-Jul-12 02:00N 37°28' E 025°20'0 0.0
2018-Jul-12 01:30N 37°28' E 025°20'0 0.0
2018-Jul-12 01:01N 37°28' E 025°20'0 0.0
2018-Jul-12 00:31N 37°28' E 025°20'0 0.0
2018-Jul-12 00:00N 37°28' E 025°20'0 0.0
2018-Jul-11 23:30N 37°28' E 025°20'0 0.0
2018-Jul-11 23:01N 37°28' E 025°20'0 0.0
2018-Jul-11 22:31N 37°28' E 025°20'0 0.0
2018-Jul-11 22:00N 37°28' E 025°20'0 0.0
2018-Jul-11 21:31N 37°28' E 025°20'0 0.0
2018-Jul-11 21:00N 37°28' E 025°20'0 0.0
2018-Jul-11 20:31N 37°28' E 025°20'0 0.0
2018-Jul-11 20:00N 37°28' E 025°20'3 5.6
2018-Jul-11 19:30N 37°29' E 025°16'612.9
2018-Jul-11 19:00N 37°32' E 025°09'510.4
2018-Jul-11 18:30N 37°35' E 025°04'5214.9
2018-Jul-11 15:01N 37°60' E 024°06'218.2
2018-Jul-11 14:53N 38°00' E 024°03'2 0.4
2018-Jul-11 09:20N 38°01' E 024°01'617.2
2018-Jul-11 09:00N 37°60' E 024°08'3715.0
2018-Jul-11 06:32N 37°45' E 024°51'220.0
2018-Jul-11 06:27N 37°44' E 024°52'919.3
2018-Jul-11 06:00N 37°38' E 024°60'918.1
2018-Jul-11 05:30N 37°32' E 025°09'3 6.8
2018-Jul-11 05:00N 37°30' E 025°12'612.6
2018-Jul-11 04:30N 37°28' E 025°20'0 0.0
2018-Jul-11 04:00N 37°28' E 025°20'0 0.0
2018-Jul-11 03:30N 37°28' E 025°20'0 0.0
2018-Jul-11 03:00N 37°28' E 025°20'0 0.0
2018-Jul-11 02:30N 37°28' E 025°20'0 0.0
2018-Jul-11 01:59N 37°28' E 025°20'0 0.0
2018-Jul-11 01:30N 37°28' E 025°20'0 0.0
2018-Jul-11 01:00N 37°28' E 025°20'0 0.0
2018-Jul-11 00:30N 37°28' E 025°20'0 0.0
2018-Jul-11 00:00N 37°28' E 025°20'0 0.0
2018-Jul-10 23:30N 37°28' E 025°20'0 0.0
2018-Jul-10 23:00N 37°28' E 025°20'0 0.0
2018-Jul-10 22:30N 37°28' E 025°20'0 0.0
2018-Jul-10 22:00N 37°28' E 025°20'0 0.0
2018-Jul-10 21:30N 37°28' E 025°20'0 0.0
2018-Jul-10 20:59N 37°28' E 025°20'0 0.0
2018-Jul-10 20:30N 37°28' E 025°20'0 0.0
2018-Jul-10 20:00N 37°28' E 025°20'0 0.6
2018-Jul-10 19:30N 37°28' E 025°19'918.1
2018-Jul-10 19:00N 37°32' E 025°09'3 6.9
2018-Jul-10 18:30N 37°34' E 025°05'5315.3
2018-Jul-10 15:03N 37°60' E 024°07'118.8
2018-Jul-10 15:00N 38°00' E 024°06'4 0.8
2018-Jul-10 09:12N 38°01' E 024°01'316.9
2018-Jul-10 09:00N 38°01' E 024°05'4115.8
2018-Jul-10 06:24N 37°44' E 024°52'919.2
2018-Jul-10 05:56N 37°37' E 025°00'818.5
2018-Jul-10 05:30N 37°32' E 025°08'4 7.0
2018-Jul-10 05:00N 37°30' E 025°11'713.8
2018-Jul-10 04:30N 37°28' E 025°20'0 0.0
2018-Jul-10 04:00N 37°28' E 025°20'0 0.0
2018-Jul-10 03:30N 37°28' E 025°20'0 0.0
2018-Jul-10 03:00N 37°28' E 025°20'0 0.0
2018-Jul-10 02:30N 37°28' E 025°20'0 0.0
2018-Jul-10 02:00N 37°28' E 025°20'0 0.0
2018-Jul-10 01:30N 37°28' E 025°20'0 0.0
2018-Jul-10 01:00N 37°28' E 025°20'0 0.0
2018-Jul-10 00:30N 37°28' E 025°20'0 0.0
2018-Jul-10 00:00N 37°28' E 025°20'0 0.0
2018-Jul-09 23:30N 37°28' E 025°20'0 0.0
2018-Jul-09 23:00N 37°28' E 025°20'0 0.0
2018-Jul-09 22:30N 37°28' E 025°20'0 0.0
2018-Jul-09 22:00N 37°28' E 025°20'0 0.0
2018-Jul-09 21:30N 37°28' E 025°20'0 0.0
2018-Jul-09 21:00N 37°28' E 025°20'0 0.0
2018-Jul-09 20:30N 37°28' E 025°20'0 0.0
2018-Jul-09 20:00N 37°28' E 025°20'2 4.1
2018-Jul-09 19:31N 37°29' E 025°17'714.5
2018-Jul-09 19:00N 37°32' E 025°09'5 9.5
2018-Jul-09 18:30N 37°35' E 025°04'5215.1
2018-Jul-09 15:04N 37°60' E 024°07'118.5
2018-Jul-09 15:00N 38°00' E 024°06'4 0.7
2018-Jul-09 09:35N 38°01' E 024°01'112.2
2018-Jul-09 09:30N 38°01' E 024°02'1218.6
2018-Jul-09 08:51N 37°57' E 024°16'3113.3
2018-Jul-09 06:30N 37°44' E 024°52'  

Dump ship's entire track history